sensor_id;sensor_type;location;lat;lon;timestamp;P1;durP1;ratioP1;P2;durP2;ratioP2
7529;SDS011;3806;52.270;10.544;2023-01-05T00:01:05;2.75;;;1.48;;
7529;SDS011;3806;52.270;10.544;2023-01-05T00:03:33;4.15;;;0.88;;
7529;SDS011;3806;52.270;10.544;2023-01-05T00:06:00;4.47;;;1.10;;
7529;SDS011;3806;52.270;10.544;2023-01-05T00:08:30;2.80;;;1.30;;
7529;SDS011;3806;52.270;10.544;2023-01-05T00:10:56;3.50;;;2.10;;
7529;SDS011;3806;52.270;10.544;2023-01-05T00:13:45;4.47;;;0.88;;
7529;SDS011;3806;52.270;10.544;2023-01-05T00:16:30;3.28;;;1.13;;
7529;SDS011;3806;52.270;10.544;2023-01-05T00:19:14;2.53;;;1.00;;
7529;SDS011;3806;52.270;10.544;2023-01-05T00:21:58;3.78;;;1.15;;
7529;SDS011;3806;52.270;10.544;2023-01-05T00:24:42;6.97;;;1.42;;
7529;SDS011;3806;52.270;10.544;2023-01-05T00:27:07;6.32;;;1.75;;
7529;SDS011;3806;52.270;10.544;2023-01-05T00:29:33;6.13;;;1.10;;
7529;SDS011;3806;52.270;10.544;2023-01-05T00:31:59;4.38;;;1.27;;
7529;SDS011;3806;52.270;10.544;2023-01-05T00:34:24;6.72;;;1.70;;
7529;SDS011;3806;52.270;10.544;2023-01-05T00:36:50;3.67;;;1.10;;
7529;SDS011;3806;52.270;10.544;2023-01-05T00:39:15;6.00;;;1.50;;
7529;SDS011;3806;52.270;10.544;2023-01-05T00:41:41;6.32;;;1.80;;
7529;SDS011;3806;52.270;10.544;2023-01-05T00:44:06;3.65;;;1.05;;
7529;SDS011;3806;52.270;10.544;2023-01-05T00:46:32;9.13;;;2.05;;
7529;SDS011;3806;52.270;10.544;2023-01-05T00:48:57;3.22;;;1.52;;
7529;SDS011;3806;52.270;10.544;2023-01-05T00:51:23;6.50;;;2.08;;
7529;SDS011;3806;52.270;10.544;2023-01-05T00:53:49;5.38;;;1.48;;
7529;SDS011;3806;52.270;10.544;2023-01-05T00:56:14;7.03;;;1.58;;
7529;SDS011;3806;52.270;10.544;2023-01-05T00:58:40;7.05;;;1.40;;
7529;SDS011;3806;52.270;10.544;2023-01-05T01:01:09;11.65;;;2.90;;
7529;SDS011;3806;52.270;10.544;2023-01-05T01:03:35;8.02;;;1.67;;
7529;SDS011;3806;52.270;10.544;2023-01-05T01:06:01;5.25;;;1.45;;
7529;SDS011;3806;52.270;10.544;2023-01-05T01:08:27;10.10;;;2.20;;
7529;SDS011;3806;52.270;10.544;2023-01-05T01:10:52;9.02;;;1.85;;
7529;SDS011;3806;52.270;10.544;2023-01-05T01:13:18;13.88;;;2.40;;
7529;SDS011;3806;52.270;10.544;2023-01-05T01:15:43;7.15;;;1.50;;
7529;SDS011;3806;52.270;10.544;2023-01-05T01:18:09;9.13;;;1.73;;
7529;SDS011;3806;52.270;10.544;2023-01-05T01:20:36;9.20;;;1.65;;
7529;SDS011;3806;52.270;10.544;2023-01-05T01:23:02;8.93;;;1.50;;
7529;SDS011;3806;52.270;10.544;2023-01-05T01:25:28;5.82;;;1.90;;
7529;SDS011;3806;52.270;10.544;2023-01-05T01:27:54;5.10;;;2.67;;
7529;SDS011;3806;52.270;10.544;2023-01-05T01:30:20;7.60;;;1.83;;
7529;SDS011;3806;52.270;10.544;2023-01-05T01:32:45;12.07;;;1.77;;
7529;SDS011;3806;52.270;10.544;2023-01-05T01:35:11;7.97;;;1.98;;
7529;SDS011;3806;52.270;10.544;2023-01-05T01:37:38;8.93;;;2.03;;
7529;SDS011;3806;52.270;10.544;2023-01-05T01:40:03;8.63;;;3.28;;
7529;SDS011;3806;52.270;10.544;2023-01-05T01:42:30;4.18;;;1.35;;
7529;SDS011;3806;52.270;10.544;2023-01-05T01:44:56;9.55;;;1.52;;
7529;SDS011;3806;52.270;10.544;2023-01-05T01:50:00;8.88;;;2.40;;
7529;SDS011;3806;52.270;10.544;2023-01-05T01:52:28;7.75;;;1.92;;
7529;SDS011;3806;52.270;10.544;2023-01-05T01:54:56;9.48;;;2.00;;
7529;SDS011;3806;52.270;10.544;2023-01-05T01:57:22;4.72;;;1.52;;
7529;SDS011;3806;52.270;10.544;2023-01-05T01:59:51;11.00;;;2.90;;
7529;SDS011;3806;52.270;10.544;2023-01-05T02:02:17;6.95;;;2.05;;
7529;SDS011;3806;52.270;10.544;2023-01-05T02:04:45;6.85;;;1.80;;
7529;SDS011;3806;52.270;10.544;2023-01-05T02:07:11;4.78;;;1.88;;
7529;SDS011;3806;52.270;10.544;2023-01-05T02:09:39;8.02;;;1.33;;
7529;SDS011;3806;52.270;10.544;2023-01-05T02:12:07;5.68;;;2.55;;
7529;SDS011;3806;52.270;10.544;2023-01-05T02:20:31;11.48;;;2.35;;
7529;SDS011;3806;52.270;10.544;2023-01-05T02:23:07;5.70;;;1.83;;
7529;SDS011;3806;52.270;10.544;2023-01-05T02:31:41;9.23;;;2.40;;
7529;SDS011;3806;52.270;10.544;2023-01-05T02:34:28;3.35;;;1.33;;
7529;SDS011;3806;52.270;10.544;2023-01-05T02:42:04;4.90;;;1.85;;
7529;SDS011;3806;52.270;10.544;2023-01-05T02:44:37;7.57;;;3.00;;
7529;SDS011;3806;52.270;10.544;2023-01-05T02:47:31;7.38;;;2.05;;
7529;SDS011;3806;52.270;10.544;2023-01-05T02:50:27;5.78;;;1.85;;
7529;SDS011;3806;52.270;10.544;2023-01-05T02:52:58;7.47;;;2.08;;
7529;SDS011;3806;52.270;10.544;2023-01-05T02:55:50;4.40;;;2.13;;
7529;SDS011;3806;52.270;10.544;2023-01-05T02:58:23;8.20;;;1.75;;
7529;SDS011;3806;52.270;10.544;2023-01-05T03:01:06;9.23;;;2.10;;
7529;SDS011;3806;52.270;10.544;2023-01-05T03:03:54;7.43;;;2.08;;
7529;SDS011;3806;52.270;10.544;2023-01-05T03:09:26;7.60;;;2.15;;
7529;SDS011;3806;52.270;10.544;2023-01-05T03:15:16;8.00;;;2.30;;
7529;SDS011;3806;52.270;10.544;2023-01-05T03:17:56;3.45;;;1.50;;
7529;SDS011;3806;52.270;10.544;2023-01-05T03:20:24;3.55;;;0.88;;
7529;SDS011;3806;52.270;10.544;2023-01-05T03:22:54;7.47;;;1.58;;
7529;SDS011;3806;52.270;10.544;2023-01-05T03:25:41;2.22;;;0.85;;
7529;SDS011;3806;52.270;10.544;2023-01-05T03:29:00;5.15;;;1.63;;
7529;SDS011;3806;52.270;10.544;2023-01-05T03:32:04;4.13;;;1.17;;
7529;SDS011;3806;52.270;10.544;2023-01-05T03:35:29;6.95;;;1.65;;
7529;SDS011;3806;52.270;10.544;2023-01-05T03:41:16;8.60;;;2.58;;
7529;SDS011;3806;52.270;10.544;2023-01-05T03:43:45;6.10;;;1.85;;
7529;SDS011;3806;52.270;10.544;2023-01-05T03:46:19;6.28;;;2.30;;
7529;SDS011;3806;52.270;10.544;2023-01-05T03:48:46;6.05;;;1.45;;
7529;SDS011;3806;52.270;10.544;2023-01-05T03:51:12;6.78;;;2.20;;
7529;SDS011;3806;52.270;10.544;2023-01-05T03:53:40;9.30;;;2.00;;
7529;SDS011;3806;52.270;10.544;2023-01-05T03:56:06;7.07;;;1.48;;
7529;SDS011;3806;52.270;10.544;2023-01-05T03:58:31;6.75;;;1.58;;
7529;SDS011;3806;52.270;10.544;2023-01-05T04:00:57;8.18;;;2.28;;
7529;SDS011;3806;52.270;10.544;2023-01-05T04:03:23;10.85;;;2.15;;
7529;SDS011;3806;52.270;10.544;2023-01-05T04:05:48;7.68;;;1.58;;
7529;SDS011;3806;52.270;10.544;2023-01-05T04:08:14;10.23;;;1.67;;
7529;SDS011;3806;52.270;10.544;2023-01-05T04:10:40;8.00;;;2.03;;
7529;SDS011;3806;52.270;10.544;2023-01-05T04:13:06;4.93;;;1.85;;
7529;SDS011;3806;52.270;10.544;2023-01-05T04:15:32;6.15;;;1.90;;
7529;SDS011;3806;52.270;10.544;2023-01-05T04:17:57;8.30;;;2.05;;
7529;SDS011;3806;52.270;10.544;2023-01-05T04:20:23;9.73;;;1.90;;
7529;SDS011;3806;52.270;10.544;2023-01-05T04:22:48;3.20;;;1.25;;
7529;SDS011;3806;52.270;10.544;2023-01-05T04:25:14;8.35;;;1.88;;
7529;SDS011;3806;52.270;10.544;2023-01-05T04:27:39;6.35;;;1.48;;
7529;SDS011;3806;52.270;10.544;2023-01-05T04:30:05;4.25;;;1.58;;
7529;SDS011;3806;52.270;10.544;2023-01-05T04:32:31;11.55;;;2.15;;
7529;SDS011;3806;52.270;10.544;2023-01-05T04:34:57;9.85;;;3.88;;
7529;SDS011;3806;52.270;10.544;2023-01-05T04:37:22;10.20;;;2.47;;
7529;SDS011;3806;52.270;10.544;2023-01-05T04:39:48;6.13;;;1.42;;
7529;SDS011;3806;52.270;10.544;2023-01-05T04:42:14;3.78;;;1.90;;
7529;SDS011;3806;52.270;10.544;2023-01-05T04:44:39;9.43;;;1.50;;
7529;SDS011;3806;52.270;10.544;2023-01-05T04:47:05;6.10;;;1.63;;
7529;SDS011;3806;52.270;10.544;2023-01-05T04:49:30;4.75;;;2.00;;
7529;SDS011;3806;52.270;10.544;2023-01-05T04:51:56;5.78;;;1.70;;
7529;SDS011;3806;52.270;10.544;2023-01-05T04:54:22;7.85;;;2.10;;
7529;SDS011;3806;52.270;10.544;2023-01-05T04:56:47;8.52;;;2.22;;
7529;SDS011;3806;52.270;10.544;2023-01-05T04:59:13;12.05;;;2.10;;
7529;SDS011;3806;52.270;10.544;2023-01-05T05:01:38;3.38;;;2.05;;
7529;SDS011;3806;52.270;10.544;2023-01-05T05:04:04;6.93;;;1.55;;
7529;SDS011;3806;52.270;10.544;2023-01-05T05:06:29;8.40;;;1.75;;
7529;SDS011;3806;52.270;10.544;2023-01-05T05:08:55;5.78;;;1.60;;
7529;SDS011;3806;52.270;10.544;2023-01-05T05:11:20;5.82;;;1.55;;
7529;SDS011;3806;52.270;10.544;2023-01-05T05:13:46;6.18;;;1.75;;
7529;SDS011;3806;52.270;10.544;2023-01-05T05:16:12;6.32;;;1.42;;
7529;SDS011;3806;52.270;10.544;2023-01-05T05:18:37;7.05;;;2.33;;
7529;SDS011;3806;52.270;10.544;2023-01-05T05:21:03;12.25;;;2.90;;
7529;SDS011;3806;52.270;10.544;2023-01-05T05:23:28;6.45;;;1.83;;
7529;SDS011;3806;52.270;10.544;2023-01-05T05:25:54;6.50;;;1.63;;
7529;SDS011;3806;52.270;10.544;2023-01-05T05:28:20;6.32;;;1.50;;
7529;SDS011;3806;52.270;10.544;2023-01-05T05:30:47;8.15;;;2.15;;
7529;SDS011;3806;52.270;10.544;2023-01-05T05:33:13;13.02;;;2.00;;
7529;SDS011;3806;52.270;10.544;2023-01-05T05:35:39;8.32;;;1.60;;
7529;SDS011;3806;52.270;10.544;2023-01-05T05:38:05;8.15;;;1.92;;
7529;SDS011;3806;52.270;10.544;2023-01-05T05:40:31;6.68;;;1.70;;
7529;SDS011;3806;52.270;10.544;2023-01-05T05:42:56;9.65;;;2.20;;
7529;SDS011;3806;52.270;10.544;2023-01-05T05:45:22;8.07;;;1.85;;
7529;SDS011;3806;52.270;10.544;2023-01-05T05:47:47;6.00;;;1.30;;
7529;SDS011;3806;52.270;10.544;2023-01-05T05:50:13;7.18;;;2.17;;
7529;SDS011;3806;52.270;10.544;2023-01-05T05:52:38;4.43;;;2.53;;
7529;SDS011;3806;52.270;10.544;2023-01-05T05:55:04;3.38;;;1.63;;
7529;SDS011;3806;52.270;10.544;2023-01-05T05:57:30;5.07;;;1.50;;
7529;SDS011;3806;52.270;10.544;2023-01-05T05:59:56;9.20;;;3.17;;
7529;SDS011;3806;52.270;10.544;2023-01-05T06:02:21;4.03;;;1.35;;
7529;SDS011;3806;52.270;10.544;2023-01-05T06:04:47;5.78;;;1.90;;
7529;SDS011;3806;52.270;10.544;2023-01-05T06:07:12;6.57;;;1.40;;
7529;SDS011;3806;52.270;10.544;2023-01-05T06:09:38;5.10;;;1.60;;
7529;SDS011;3806;52.270;10.544;2023-01-05T06:12:03;8.73;;;2.47;;
7529;SDS011;3806;52.270;10.544;2023-01-05T06:14:29;9.55;;;1.95;;
7529;SDS011;3806;52.270;10.544;2023-01-05T06:16:55;9.25;;;1.90;;
7529;SDS011;3806;52.270;10.544;2023-01-05T06:19:20;8.35;;;2.92;;
7529;SDS011;3806;52.270;10.544;2023-01-05T06:21:46;9.25;;;2.38;;
7529;SDS011;3806;52.270;10.544;2023-01-05T06:24:11;3.55;;;2.00;;
7529;SDS011;3806;52.270;10.544;2023-01-05T06:26:37;7.13;;;2.20;;
7529;SDS011;3806;52.270;10.544;2023-01-05T06:29:02;9.52;;;1.63;;
7529;SDS011;3806;52.270;10.544;2023-01-05T06:31:28;4.55;;;1.70;;
7529;SDS011;3806;52.270;10.544;2023-01-05T06:33:54;9.35;;;1.92;;
7529;SDS011;3806;52.270;10.544;2023-01-05T06:36:19;5.13;;;2.28;;
7529;SDS011;3806;52.270;10.544;2023-01-05T06:38:45;7.43;;;1.92;;
7529;SDS011;3806;52.270;10.544;2023-01-05T06:41:10;4.55;;;2.17;;
7529;SDS011;3806;52.270;10.544;2023-01-05T06:43:36;6.15;;;1.98;;
7529;SDS011;3806;52.270;10.544;2023-01-05T06:46:02;4.65;;;1.63;;
7529;SDS011;3806;52.270;10.544;2023-01-05T06:48:28;10.07;;;1.63;;
7529;SDS011;3806;52.270;10.544;2023-01-05T06:50:53;5.97;;;2.15;;
7529;SDS011;3806;52.270;10.544;2023-01-05T06:53:19;9.55;;;2.65;;
7529;SDS011;3806;52.270;10.544;2023-01-05T06:55:44;5.35;;;2.00;;
7529;SDS011;3806;52.270;10.544;2023-01-05T06:58:10;12.10;;;1.65;;
7529;SDS011;3806;52.270;10.544;2023-01-05T07:00:35;4.75;;;1.60;;
7529;SDS011;3806;52.270;10.544;2023-01-05T07:03:01;5.47;;;1.65;;
7529;SDS011;3806;52.270;10.544;2023-01-05T07:05:27;7.40;;;1.98;;
7529;SDS011;3806;52.270;10.544;2023-01-05T07:07:53;7.18;;;3.05;;
7529;SDS011;3806;52.270;10.544;2023-01-05T07:10:18;10.77;;;3.50;;
7529;SDS011;3806;52.270;10.544;2023-01-05T07:12:44;5.57;;;1.23;;
7529;SDS011;3806;52.270;10.544;2023-01-05T07:15:10;6.82;;;2.10;;
7529;SDS011;3806;52.270;10.544;2023-01-05T07:17:35;7.63;;;1.83;;
7529;SDS011;3806;52.270;10.544;2023-01-05T07:20:02;6.78;;;2.00;;
7529;SDS011;3806;52.270;10.544;2023-01-05T07:22:28;3.05;;;1.50;;
7529;SDS011;3806;52.270;10.544;2023-01-05T07:24:55;4.63;;;1.63;;
7529;SDS011;3806;52.270;10.544;2023-01-05T07:27:22;12.52;;;2.15;;
7529;SDS011;3806;52.270;10.544;2023-01-05T07:29:48;3.88;;;1.70;;
7529;SDS011;3806;52.270;10.544;2023-01-05T07:32:13;9.63;;;1.90;;
7529;SDS011;3806;52.270;10.544;2023-01-05T07:34:39;8.77;;;2.53;;
7529;SDS011;3806;52.270;10.544;2023-01-05T07:37:04;6.50;;;2.15;;
7529;SDS011;3806;52.270;10.544;2023-01-05T07:39:30;8.27;;;2.85;;
7529;SDS011;3806;52.270;10.544;2023-01-05T07:41:55;7.70;;;1.95;;
7529;SDS011;3806;52.270;10.544;2023-01-05T07:44:21;7.70;;;1.80;;
7529;SDS011;3806;52.270;10.544;2023-01-05T07:46:47;9.13;;;1.92;;
7529;SDS011;3806;52.270;10.544;2023-01-05T07:49:12;5.78;;;1.48;;
7529;SDS011;3806;52.270;10.544;2023-01-05T07:51:39;7.45;;;1.60;;
7529;SDS011;3806;52.270;10.544;2023-01-05T07:54:05;8.95;;;1.88;;
7529;SDS011;3806;52.270;10.544;2023-01-05T07:56:31;6.50;;;1.55;;
7529;SDS011;3806;52.270;10.544;2023-01-05T07:58:56;10.90;;;2.20;;
7529;SDS011;3806;52.270;10.544;2023-01-05T08:01:22;4.78;;;1.73;;
7529;SDS011;3806;52.270;10.544;2023-01-05T08:03:48;7.28;;;2.10;;
7529;SDS011;3806;52.270;10.544;2023-01-05T08:06:14;8.75;;;3.10;;
7529;SDS011;3806;52.270;10.544;2023-01-05T08:08:42;6.13;;;1.75;;
7529;SDS011;3806;52.270;10.544;2023-01-05T08:11:08;7.75;;;1.98;;
7529;SDS011;3806;52.270;10.544;2023-01-05T08:13:35;7.80;;;2.88;;
7529;SDS011;3806;52.270;10.544;2023-01-05T08:16:20;5.97;;;2.35;;
7529;SDS011;3806;52.270;10.544;2023-01-05T08:18:46;6.63;;;1.80;;
7529;SDS011;3806;52.270;10.544;2023-01-05T08:21:12;7.63;;;2.78;;
7529;SDS011;3806;52.270;10.544;2023-01-05T08:23:37;8.15;;;1.83;;
7529;SDS011;3806;52.270;10.544;2023-01-05T08:26:04;12.70;;;2.50;;
7529;SDS011;3806;52.270;10.544;2023-01-05T08:28:31;8.07;;;2.13;;
7529;SDS011;3806;52.270;10.544;2023-01-05T08:31:03;6.25;;;2.13;;
7529;SDS011;3806;52.270;10.544;2023-01-05T08:33:30;4.57;;;1.23;;
7529;SDS011;3806;52.270;10.544;2023-01-05T08:35:56;8.43;;;2.80;;
7529;SDS011;3806;52.270;10.544;2023-01-05T08:38:21;10.82;;;2.60;;
7529;SDS011;3806;52.270;10.544;2023-01-05T08:40:47;10.52;;;1.92;;
7529;SDS011;3806;52.270;10.544;2023-01-05T08:43:12;7.43;;;1.70;;
7529;SDS011;3806;52.270;10.544;2023-01-05T08:45:38;12.85;;;2.67;;
7529;SDS011;3806;52.270;10.544;2023-01-05T08:48:03;6.63;;;1.75;;
7529;SDS011;3806;52.270;10.544;2023-01-05T08:50:29;5.40;;;1.65;;
7529;SDS011;3806;52.270;10.544;2023-01-05T08:52:55;6.35;;;1.63;;
7529;SDS011;3806;52.270;10.544;2023-01-05T08:55:21;14.52;;;2.13;;
7529;SDS011;3806;52.270;10.544;2023-01-05T08:57:47;10.73;;;2.30;;
7529;SDS011;3806;52.270;10.544;2023-01-05T09:00:13;9.27;;;1.90;;
7529;SDS011;3806;52.270;10.544;2023-01-05T09:02:41;5.78;;;2.58;;
7529;SDS011;3806;52.270;10.544;2023-01-05T09:05:07;6.53;;;1.80;;
7529;SDS011;3806;52.270;10.544;2023-01-05T09:07:33;4.40;;;2.10;;
7529;SDS011;3806;52.270;10.544;2023-01-05T09:09:58;7.15;;;2.40;;
7529;SDS011;3806;52.270;10.544;2023-01-05T09:12:24;7.40;;;1.73;;
7529;SDS011;3806;52.270;10.544;2023-01-05T09:14:50;7.05;;;1.67;;
7529;SDS011;3806;52.270;10.544;2023-01-05T09:17:15;10.60;;;2.00;;
7529;SDS011;3806;52.270;10.544;2023-01-05T09:19:41;5.82;;;1.88;;
7529;SDS011;3806;52.270;10.544;2023-01-05T09:22:07;5.93;;;2.13;;
7529;SDS011;3806;52.270;10.544;2023-01-05T09:24:32;9.07;;;2.05;;
7529;SDS011;3806;52.270;10.544;2023-01-05T09:26:58;7.63;;;2.03;;
7529;SDS011;3806;52.270;10.544;2023-01-05T09:29:23;5.05;;;1.88;;
7529;SDS011;3806;52.270;10.544;2023-01-05T09:31:49;6.38;;;1.77;;
7529;SDS011;3806;52.270;10.544;2023-01-05T09:34:14;1.45;;;1.13;;
7529;SDS011;3806;52.270;10.544;2023-01-05T09:36:42;6.75;;;1.77;;
7529;SDS011;3806;52.270;10.544;2023-01-05T09:39:08;5.35;;;1.60;;
7529;SDS011;3806;52.270;10.544;2023-01-05T09:44:10;6.70;;;1.83;;
7529;SDS011;3806;52.270;10.544;2023-01-05T09:46:49;7.35;;;2.35;;
7529;SDS011;3806;52.270;10.544;2023-01-05T09:49:21;6.25;;;1.50;;
7529;SDS011;3806;52.270;10.544;2023-01-05T09:51:49;3.90;;;1.60;;
7529;SDS011;3806;52.270;10.544;2023-01-05T09:54:21;5.88;;;1.70;;
7529;SDS011;3806;52.270;10.544;2023-01-05T09:56:51;8.35;;;1.67;;
7529;SDS011;3806;52.270;10.544;2023-01-05T09:59:17;5.78;;;1.63;;
7529;SDS011;3806;52.270;10.544;2023-01-05T10:01:47;4.10;;;1.70;;
7529;SDS011;3806;52.270;10.544;2023-01-05T10:04:16;8.32;;;2.40;;
7529;SDS011;3806;52.270;10.544;2023-01-05T10:06:55;5.50;;;2.58;;
7529;SDS011;3806;52.270;10.544;2023-01-05T10:09:32;5.35;;;2.30;;
7529;SDS011;3806;52.270;10.544;2023-01-05T10:15:07;4.88;;;1.52;;
7529;SDS011;3806;52.270;10.544;2023-01-05T10:17:38;7.88;;;2.50;;
7529;SDS011;3806;52.270;10.544;2023-01-05T10:20:14;12.15;;;2.25;;
7529;SDS011;3806;52.270;10.544;2023-01-05T10:30:59;0.75;;;0.40;;
7529;SDS011;3806;52.270;10.544;2023-01-05T10:38:50;0.35;;;0.30;;
7529;SDS011;3806;52.270;10.544;2023-01-05T10:41:27;0.90;;;0.20;;
7529;SDS011;3806;52.270;10.544;2023-01-05T10:44:31;1.08;;;0.32;;
7529;SDS011;3806;52.270;10.544;2023-01-05T10:47:15;1.27;;;0.30;;
7529;SDS011;3806;52.270;10.544;2023-01-05T10:49:41;0.43;;;0.30;;
7529;SDS011;3806;52.270;10.544;2023-01-05T10:52:14;0.77;;;0.40;;
7529;SDS011;3806;52.270;10.544;2023-01-05T10:54:46;2.60;;;0.38;;
7529;SDS011;3806;52.270;10.544;2023-01-05T11:00:03;2.50;;;1.10;;
7529;SDS011;3806;52.270;10.544;2023-01-05T11:02:33;0.15;;;0.13;;
7529;SDS011;3806;52.270;10.544;2023-01-05T11:05:46;2.80;;;0.60;;
7529;SDS011;3806;52.270;10.544;2023-01-05T11:07:52;1.15;;;0.28;;
7529;SDS011;3806;52.270;10.544;2023-01-05T11:10:25;1.70;;;0.35;;
7529;SDS011;3806;52.270;10.544;2023-01-05T11:13:04;1.33;;;0.47;;
7529;SDS011;3806;52.270;10.544;2023-01-05T11:15:41;2.13;;;0.40;;
7529;SDS011;3806;52.270;10.544;2023-01-05T11:18:22;1.42;;;0.52;;
7529;SDS011;3806;52.270;10.544;2023-01-05T11:21:04;2.38;;;0.30;;
7529;SDS011;3806;52.270;10.544;2023-01-05T11:23:34;0.30;;;0.30;;
7529;SDS011;3806;52.270;10.544;2023-01-05T11:26:17;0.80;;;0.43;;
7529;SDS011;3806;52.270;10.544;2023-01-05T11:29:02;1.52;;;0.52;;
7529;SDS011;3806;52.270;10.544;2023-01-05T11:31:35;2.15;;;0.63;;
7529;SDS011;3806;52.270;10.544;2023-01-05T11:34:26;2.93;;;0.30;;
7529;SDS011;3806;52.270;10.544;2023-01-05T11:37:03;0.32;;;0.22;;
7529;SDS011;3806;52.270;10.544;2023-01-05T11:39:39;2.60;;;0.60;;
7529;SDS011;3806;52.270;10.544;2023-01-05T11:44:45;0.85;;;0.40;;
7529;SDS011;3806;52.270;10.544;2023-01-05T11:47:19;0.45;;;0.30;;
7529;SDS011;3806;52.270;10.544;2023-01-05T11:52:40;3.38;;;0.32;;
7529;SDS011;3806;52.270;10.544;2023-01-05T11:57:48;1.85;;;0.68;;
7529;SDS011;3806;52.270;10.544;2023-01-05T12:00:21;2.28;;;0.63;;
7529;SDS011;3806;52.270;10.544;2023-01-05T12:08:19;1.38;;;0.55;;
7529;SDS011;3806;52.270;10.544;2023-01-05T12:13:47;1.48;;;0.30;;
7529;SDS011;3806;52.270;10.544;2023-01-05T12:24:48;1.63;;;1.00;;
7529;SDS011;3806;52.270;10.544;2023-01-05T12:30:17;0.35;;;0.15;;
7529;SDS011;3806;52.270;10.544;2023-01-05T12:38:46;0.55;;;0.50;;
7529;SDS011;3806;52.270;10.544;2023-01-05T12:47:07;5.18;;;0.73;;
7529;SDS011;3806;52.270;10.544;2023-01-05T12:49:50;1.30;;;0.65;;
7529;SDS011;3806;52.270;10.544;2023-01-05T12:57:41;2.72;;;0.80;;
7529;SDS011;3806;52.270;10.544;2023-01-05T13:00:21;3.20;;;1.65;;
7529;SDS011;3806;52.270;10.544;2023-01-05T13:02:53;1.23;;;0.57;;
7529;SDS011;3806;52.270;10.544;2023-01-05T13:05:22;0.70;;;0.50;;
7529;SDS011;3806;52.270;10.544;2023-01-05T13:08:12;0.68;;;0.68;;
7529;SDS011;3806;52.270;10.544;2023-01-05T13:10:48;2.05;;;0.77;;
7529;SDS011;3806;52.270;10.544;2023-01-05T13:13:26;1.50;;;0.57;;
7529;SDS011;3806;52.270;10.544;2023-01-05T13:16:01;1.52;;;0.60;;
7529;SDS011;3806;52.270;10.544;2023-01-05T13:18:27;2.88;;;0.68;;
7529;SDS011;3806;52.270;10.544;2023-01-05T13:20:56;1.02;;;0.60;;
7529;SDS011;3806;52.270;10.544;2023-01-05T13:26:04;1.10;;;0.38;;
7529;SDS011;3806;52.270;10.544;2023-01-05T13:28:41;1.30;;;0.60;;
7529;SDS011;3806;52.270;10.544;2023-01-05T13:50:44;1.95;;;0.45;;
7529;SDS011;3806;52.270;10.544;2023-01-05T13:53:13;0.93;;;0.57;;
7529;SDS011;3806;52.270;10.544;2023-01-05T13:55:58;1.58;;;0.60;;
7529;SDS011;3806;52.270;10.544;2023-01-05T14:01:02;0.45;;;0.30;;
7529;SDS011;3806;52.270;10.544;2023-01-05T14:03:40;0.28;;;0.20;;
7529;SDS011;3806;52.270;10.544;2023-01-05T14:06:16;0.52;;;0.43;;
7529;SDS011;3806;52.270;10.544;2023-01-05T14:11:25;0.35;;;0.30;;
7529;SDS011;3806;52.270;10.544;2023-01-05T14:13:59;0.65;;;0.13;;
7529;SDS011;3806;52.270;10.544;2023-01-05T14:24:25;1.95;;;0.43;;
7529;SDS011;3806;52.270;10.544;2023-01-05T14:27:09;1.10;;;0.52;;
7529;SDS011;3806;52.270;10.544;2023-01-05T14:32:09;1.17;;;0.47;;
7529;SDS011;3806;52.270;10.544;2023-01-05T14:37:31;2.72;;;0.50;;
7529;SDS011;3806;52.270;10.544;2023-01-05T14:40:41;3.78;;;0.40;;
7529;SDS011;3806;52.270;10.544;2023-01-05T14:43:04;4.07;;;0.75;;
7529;SDS011;3806;52.270;10.544;2023-01-05T14:48:31;2.03;;;0.50;;
7529;SDS011;3806;52.270;10.544;2023-01-05T14:51:13;2.97;;;1.70;;
7529;SDS011;3806;52.270;10.544;2023-01-05T14:53:47;2.67;;;0.65;;
7529;SDS011;3806;52.270;10.544;2023-01-05T14:56:19;1.15;;;0.60;;
7529;SDS011;3806;52.270;10.544;2023-01-05T15:01:52;2.67;;;1.00;;
7529;SDS011;3806;52.270;10.544;2023-01-05T15:04:27;2.03;;;0.70;;
7529;SDS011;3806;52.270;10.544;2023-01-05T15:15:06;1.75;;;0.75;;
7529;SDS011;3806;52.270;10.544;2023-01-05T15:23:33;3.85;;;1.20;;
7529;SDS011;3806;52.270;10.544;2023-01-05T15:30:12;2.58;;;0.98;;
7529;SDS011;3806;52.270;10.544;2023-01-05T15:32:39;2.70;;;0.70;;
7529;SDS011;3806;52.270;10.544;2023-01-05T15:37:45;1.15;;;0.90;;
7529;SDS011;3806;52.270;10.544;2023-01-05T15:42:47;8.13;;;1.00;;
7529;SDS011;3806;52.270;10.544;2023-01-05T15:45:37;5.22;;;1.25;;
7529;SDS011;3806;52.270;10.544;2023-01-05T15:48:08;3.17;;;1.20;;
7529;SDS011;3806;52.270;10.544;2023-01-05T15:50:45;4.40;;;1.70;;
7529;SDS011;3806;52.270;10.544;2023-01-05T15:53:23;2.00;;;0.98;;
7529;SDS011;3806;52.270;10.544;2023-01-05T15:55:57;3.42;;;1.27;;
7529;SDS011;3806;52.270;10.544;2023-01-05T15:58:24;1.75;;;1.13;;
7529;SDS011;3806;52.270;10.544;2023-01-05T16:03:36;2.95;;;1.40;;
7529;SDS011;3806;52.270;10.544;2023-01-05T16:06:16;2.42;;;1.30;;
7529;SDS011;3806;52.270;10.544;2023-01-05T16:08:45;1.58;;;1.20;;
7529;SDS011;3806;52.270;10.544;2023-01-05T16:11:15;5.07;;;1.45;;
7529;SDS011;3806;52.270;10.544;2023-01-05T16:14:03;3.85;;;1.45;;
7529;SDS011;3806;52.270;10.544;2023-01-05T16:16:54;3.08;;;1.23;;
7529;SDS011;3806;52.270;10.544;2023-01-05T16:19:30;3.08;;;1.38;;
7529;SDS011;3806;52.270;10.544;2023-01-05T16:22:29;1.90;;;1.35;;
7529;SDS011;3806;52.270;10.544;2023-01-05T16:27:27;3.55;;;1.38;;
7529;SDS011;3806;52.270;10.544;2023-01-05T16:29:54;2.33;;;1.20;;
7529;SDS011;3806;52.270;10.544;2023-01-05T16:33:01;4.72;;;1.90;;
7529;SDS011;3806;52.270;10.544;2023-01-05T16:35:52;3.60;;;1.00;;
7529;SDS011;3806;52.270;10.544;2023-01-05T16:38:36;1.83;;;1.08;;
7529;SDS011;3806;52.270;10.544;2023-01-05T16:43:59;2.25;;;1.23;;
7529;SDS011;3806;52.270;10.544;2023-01-05T16:46:27;3.47;;;1.33;;
7529;SDS011;3806;52.270;10.544;2023-01-05T16:49:32;2.90;;;1.30;;
7529;SDS011;3806;52.270;10.544;2023-01-05T16:52:00;5.43;;;1.42;;
7529;SDS011;3806;52.270;10.544;2023-01-05T16:54:36;5.03;;;1.77;;
7529;SDS011;3806;52.270;10.544;2023-01-05T16:59:55;3.03;;;1.25;;
7529;SDS011;3806;52.270;10.544;2023-01-05T17:02:28;1.90;;;1.30;;
7529;SDS011;3806;52.270;10.544;2023-01-05T17:05:03;4.68;;;1.83;;
7529;SDS011;3806;52.270;10.544;2023-01-05T17:07:30;3.67;;;2.58;;
7529;SDS011;3806;52.270;10.544;2023-01-05T17:09:57;5.85;;;2.65;;
7529;SDS011;3806;52.270;10.544;2023-01-05T17:12:23;5.50;;;2.05;;
7529;SDS011;3806;52.270;10.544;2023-01-05T17:14:48;5.28;;;2.72;;
7529;SDS011;3806;52.270;10.544;2023-01-05T17:17:15;7.85;;;3.50;;
7529;SDS011;3806;52.270;10.544;2023-01-05T17:19:40;5.15;;;3.30;;
7529;SDS011;3806;52.270;10.544;2023-01-05T17:22:06;6.28;;;3.20;;
7529;SDS011;3806;52.270;10.544;2023-01-05T17:24:34;4.97;;;2.65;;
7529;SDS011;3806;52.270;10.544;2023-01-05T17:27:00;2.95;;;2.17;;
7529;SDS011;3806;52.270;10.544;2023-01-05T17:29:29;5.82;;;2.65;;
7529;SDS011;3806;52.270;10.544;2023-01-05T17:31:56;5.13;;;2.60;;
7529;SDS011;3806;52.270;10.544;2023-01-05T17:34:22;7.80;;;3.35;;
7529;SDS011;3806;52.270;10.544;2023-01-05T17:36:48;3.80;;;2.50;;
7529;SDS011;3806;52.270;10.544;2023-01-05T17:39:19;4.43;;;2.40;;
7529;SDS011;3806;52.270;10.544;2023-01-05T17:41:45;4.57;;;2.15;;
7529;SDS011;3806;52.270;10.544;2023-01-05T17:44:11;6.70;;;2.92;;
7529;SDS011;3806;52.270;10.544;2023-01-05T17:46:39;6.43;;;2.08;;
7529;SDS011;3806;52.270;10.544;2023-01-05T17:49:08;4.38;;;2.42;;
7529;SDS011;3806;52.270;10.544;2023-01-05T17:51:43;3.50;;;2.47;;
7529;SDS011;3806;52.270;10.544;2023-01-05T17:54:09;4.55;;;1.95;;
7529;SDS011;3806;52.270;10.544;2023-01-05T17:56:35;3.60;;;2.25;;
7529;SDS011;3806;52.270;10.544;2023-01-05T17:59:01;3.85;;;2.30;;
7529;SDS011;3806;52.270;10.544;2023-01-05T18:01:28;6.72;;;2.67;;
7529;SDS011;3806;52.270;10.544;2023-01-05T18:03:54;4.47;;;2.58;;
7529;SDS011;3806;52.270;10.544;2023-01-05T18:06:20;5.57;;;3.20;;
7529;SDS011;3806;52.270;10.544;2023-01-05T18:08:46;5.45;;;3.13;;
7529;SDS011;3806;52.270;10.544;2023-01-05T18:11:11;11.35;;;4.28;;
7529;SDS011;3806;52.270;10.544;2023-01-05T18:13:37;5.95;;;3.40;;
7529;SDS011;3806;52.270;10.544;2023-01-05T18:16:06;8.15;;;4.32;;